Time;durP1;ratioP1;P1;durP2;ratioP2;P2;SDS_P1;SDS_P2;PMS_P1;PMS_P2;Temp;Humidity;BMP_temperature;BMP_pressure;BME280_temperature;BME280_humidity;BME280_pressure;Samples;Min_cycle;Max_cycle;Signal;HPM_P1;HPM_P2
2024/01/08 00:01:50;;;;;;;9.60;4.30;;;-0.20;99.90;;;;;;5071901;28;20016;-93
2024/01/08 00:04:18;;;;;;;8.77;4.20;;;-0.20;99.90;;;;;;5073639;28;20032;-93
2024/01/08 00:06:46;;;;;;;9.82;4.47;;;-0.20;99.90;;;;;;5087016;28;20073;-94
2024/01/08 00:09:14;;;;;;;8.48;4.13;;;-0.20;99.90;;;;;;5076260;28;20032;-94
2024/01/08 00:11:40;;;;;;;7.50;4.00;;;-0.20;99.90;;;;;;5076553;28;20035;-93
2024/01/08 00:14:06;;;;;;;12.05;4.47;;;-0.20;99.90;;;;;;5076746;28;20475;-93
2024/01/08 00:16:32;;;;;;;10.07;4.65;;;-0.10;99.90;;;;;;5076418;28;20089;-94
2024/01/08 00:18:57;;;;;;;10.23;4.55;;;-0.10;99.90;;;;;;5076667;28;20380;-93
2024/01/08 00:21:23;;;;;;;9.38;4.45;;;-0.10;99.90;;;;;;5076156;28;20021;-93
2024/01/08 00:23:49;;;;;;;12.68;4.07;;;-0.10;99.90;;;;;;5076337;28;20052;-94
2024/01/08 00:26:15;;;;;;;8.63;3.92;;;-0.10;99.90;;;;;;5076597;28;20024;-94
2024/01/08 00:28:40;;;;;;;9.75;4.47;;;0.00;99.90;;;;;;5077445;28;20024;-94
2024/01/08 00:31:06;;;;;;;9.52;4.28;;;-0.10;99.90;;;;;;5075996;28;20073;-93
2024/01/08 00:33:32;;;;;;;8.82;3.72;;;0.00;99.90;;;;;;5075467;28;20548;-94
2024/01/08 00:35:57;;;;;;;7.53;4.15;;;-0.10;99.90;;;;;;5076090;28;20059;-94
2024/01/08 00:38:25;;;;;;;7.30;4.28;;;-0.10;99.90;;;;;;5076097;28;20024;-91
2024/01/08 00:40:52;;;;;;;7.97;4.05;;;-0.10;99.90;;;;;;5068175;28;20028;-93
2024/01/08 00:43:17;;;;;;;8.98;4.65;;;-0.10;99.90;;;;;;5076496;28;20019;-93
2024/01/08 00:45:43;;;;;;;7.45;4.00;;;-0.20;99.90;;;;;;5076401;28;20757;-94
2024/01/08 00:48:08;;;;;;;8.35;3.60;;;-0.20;99.90;;;;;;5076615;28;20051;-94
2024/01/08 00:50:34;;;;;;;8.43;4.32;;;-0.10;99.90;;;;;;5074794;28;20024;-94
2024/01/08 00:53:00;;;;;;;8.55;4.53;;;-0.10;99.90;;;;;;5070381;28;20024;-94
2024/01/08 00:55:28;;;;;;;6.97;4.00;;;0.00;99.90;;;;;;5082054;28;20058;-95
2024/01/08 00:57:58;;;;;;;10.07;4.05;;;-0.10;99.90;;;;;;5076743;28;20032;-94
2024/01/08 01:00:24;;;;;;;10.30;4.05;;;-0.20;99.90;;;;;;5077176;28;20139;-94
2024/01/08 01:02:49;;;;;;;13.45;5.63;;;-0.20;99.90;;;;;;5077247;28;20020;-93
2024/01/08 01:05:15;;;;;;;12.60;5.00;;;0.10;99.90;;;;;;5076534;28;20031;-94
2024/01/08 01:07:41;;;;;;;11.88;4.72;;;0.00;99.90;;;;;;5069911;28;20024;-94
2024/01/08 01:10:07;;;;;;;12.20;5.13;;;-0.20;99.90;;;;;;5072235;28;20111;-94
2024/01/08 01:12:35;;;;;;;11.38;4.68;;;-0.20;99.90;;;;;;5080335;28;20390;-94
2024/01/08 01:15:01;;;;;;;;;;;0.00;99.90;;;;;;5082059;28;20036;-91
2024/01/08 01:17:26;;;;;;;11.25;5.38;;;-0.10;99.90;;;;;;5089091;28;20355;-93
2024/01/08 01:19:52;;;;;;;8.60;4.57;;;-0.10;99.90;;;;;;5085906;28;20038;-94
2024/01/08 01:22:18;;;;;;;9.07;4.70;;;-0.10;99.90;;;;;;5080738;28;20020;-94
2024/01/08 01:24:43;;;;;;;11.65;5.38;;;-0.20;99.90;;;;;;5080073;28;20020;-94
2024/01/08 01:27:11;;;;;;;10.55;4.85;;;-0.20;99.90;;;;;;5079055;28;20444;-94
2024/01/08 01:29:36;;;;;;;;;;;-0.10;99.90;;;;;;5079878;28;20071;-94
2024/01/08 01:32:02;;;;;;;10.77;4.88;;;-0.10;99.90;;;;;;5076273;28;20150;-94
2024/01/08 01:34:30;;;;;;;11.00;4.88;;;-0.10;99.90;;;;;;5076367;28;20064;-94
2024/01/08 01:36:56;;;;;;;10.13;4.68;;;-0.10;99.90;;;;;;5074686;28;20028;-93
2024/01/08 01:39:21;;;;;;;12.35;5.18;;;-0.10;99.90;;;;;;5080496;28;20028;-93
2024/01/08 01:41:50;;;;;;;13.45;5.78;;;-0.10;99.90;;;;;;5077857;28;20023;-94
2024/01/08 01:44:15;;;;;;;11.45;5.40;;;-0.10;99.90;;;;;;5080154;28;20054;-94
2024/01/08 01:46:51;;;;;;;10.43;4.70;;;-0.10;99.90;;;;;;5086081;28;20027;-94
2024/01/08 01:49:21;;;;;;;9.63;5.35;;;-0.10;99.90;;;;;;5078120;28;20479;-94
2024/01/08 01:51:50;;;;;;;12.77;4.78;;;0.00;99.90;;;;;;5076856;28;20032;-94
2024/01/08 01:54:18;;;;;;;10.63;4.70;;;-0.10;99.90;;;;;;5080196;28;20461;-94
2024/01/08 01:56:46;;;;;;;10.50;4.55;;;0.00;99.90;;;;;;5090516;28;20099;-93
2024/01/08 01:59:16;;;;;;;8.77;4.35;;;-0.10;99.90;;;;;;5079068;28;20035;-93
2024/01/08 02:01:42;;;;;;;10.80;5.00;;;-0.10;99.90;;;;;;5079760;28;20038;-94
2024/01/08 02:04:08;;;;;;;7.95;4.30;;;0.00;99.90;;;;;;5076761;28;20013;-94
2024/01/08 02:06:37;;;;;;;11.10;4.97;;;-0.10;99.90;;;;;;5074514;28;20028;-94
2024/01/08 02:09:03;;;;;;;9.27;4.80;;;-0.10;99.90;;;;;;5063891;28;20036;-94
2024/01/08 02:11:31;;;;;;;10.32;5.30;;;-0.10;99.90;;;;;;5078180;28;20024;-94
2024/01/08 02:13:57;;;;;;;14.32;5.65;;;-0.10;99.90;;;;;;5076668;28;20036;-94
2024/01/08 02:16:22;;;;;;;8.70;4.75;;;-0.10;99.90;;;;;;5082983;28;20051;-92
2024/01/08 02:18:48;;;;;;;9.43;4.90;;;0.00;99.90;;;;;;5078691;28;20028;-94
2024/01/08 02:21:16;;;;;;;7.28;4.22;;;-0.10;99.90;;;;;;5079145;28;20506;-94
2024/01/08 02:23:42;;;;;;;9.25;4.38;;;-0.10;99.90;;;;;;5078241;28;20402;-93
2024/01/08 02:26:10;;;;;;;9.43;4.65;;;0.10;99.90;;;;;;5075036;28;20046;-94
2024/01/08 02:28:36;;;;;;;9.38;4.50;;;0.10;99.90;;;;;;5080453;28;20634;-94
2024/01/08 02:31:02;;;;;;;13.25;4.60;;;0.00;99.90;;;;;;5080026;28;20020;-94
2024/01/08 02:33:27;;;;;;;10.80;3.97;;;0.00;99.90;;;;;;5080477;28;20028;-94
2024/01/08 02:35:56;;;;;;;8.27;4.05;;;-0.10;99.90;;;;;;5079950;28;20080;-94
2024/01/08 02:38:22;;;;;;;7.00;3.47;;;0.00;99.90;;;;;;5081329;28;20032;-94
2024/01/08 02:40:47;;;;;;;12.43;4.65;;;0.00;99.90;;;;;;5079958;28;20036;-94
2024/01/08 02:43:13;;;;;;;8.43;3.92;;;-0.10;99.90;;;;;;5077816;28;20050;-94
2024/01/08 02:45:39;;;;;;;5.13;2.75;;;0.00;99.90;;;;;;5077828;28;20044;-94
2024/01/08 02:48:04;;;;;;;11.43;4.13;;;0.00;99.90;;;;;;5076133;28;20024;-94
2024/01/08 02:50:30;;;;;;;9.30;3.60;;;0.00;99.90;;;;;;5077907;28;20119;-94
2024/01/08 02:52:56;;;;;;;9.20;3.92;;;0.00;99.90;;;;;;5078208;28;20033;-94
2024/01/08 02:55:21;;;;;;;8.77;3.60;;;0.00;99.90;;;;;;5070394;28;20028;-94
2024/01/08 02:57:47;;;;;;;7.63;3.55;;;0.00;99.90;;;;;;5078908;28;20028;-94
2024/01/08 03:00:13;;;;;;;6.53;2.97;;;0.00;99.90;;;;;;5081349;28;20043;-94
2024/01/08 03:02:39;;;;;;;4.75;3.25;;;0.00;99.90;;;;;;5081879;28;20054;-94
2024/01/08 03:05:06;;;;;;;7.25;3.63;;;0.00;99.90;;;;;;5076817;28;20032;-94
2024/01/08 03:07:31;;;;;;;7.00;3.40;;;0.10;99.90;;;;;;5073857;28;20033;-94
2024/01/08 03:09:58;;;;;;;9.90;3.92;;;0.10;99.90;;;;;;5075596;28;20034;-94
2024/01/08 03:12:24;;;;;;;8.02;3.70;;;0.10;99.90;;;;;;5079773;28;20050;-94
2024/01/08 03:14:50;;;;;;;6.20;3.50;;;0.00;99.90;;;;;;5077423;28;20028;-94
2024/01/08 03:17:16;;;;;;;8.90;3.92;;;0.00;99.90;;;;;;5081181;28;20039;-93
2024/01/08 03:19:42;;;;;;;6.50;3.80;;;0.10;99.90;;;;;;5080871;28;20028;-93
2024/01/08 03:22:07;;;;;;;8.68;4.20;;;0.20;99.90;;;;;;5080475;28;20093;-94
2024/01/08 03:24:34;;;;;;;8.70;4.13;;;0.10;99.90;;;;;;5073617;28;20041;-94
2024/01/08 03:27:00;;;;;;;4.97;3.38;;;0.10;99.90;;;;;;5079636;28;20055;-94
2024/01/08 03:29:25;;;;;;;6.57;3.63;;;0.00;99.90;;;;;;5080005;28;20050;-94
2024/01/08 03:31:51;;;;;;;6.90;3.42;;;0.10;99.90;;;;;;5080392;28;20067;-93
2024/01/08 03:34:17;;;;;;;12.15;4.07;;;0.10;99.90;;;;;;5080419;28;20032;-94
2024/01/08 03:36:46;;;;;;;5.65;3.55;;;0.10;99.90;;;;;;5080611;28;20027;-94
2024/01/08 03:39:13;;;;;;;8.88;4.03;;;0.10;99.90;;;;;;5088968;28;20016;-94
2024/01/08 03:41:42;;;;;;;8.50;3.80;;;0.00;99.90;;;;;;5075697;28;20043;-94
2024/01/08 03:44:09;;;;;;;9.52;4.40;;;0.10;99.90;;;;;;5079076;28;20077;-93
2024/01/08 03:46:39;;;;;;;7.88;4.28;;;0.10;99.90;;;;;;5079880;28;20032;-93
2024/01/08 03:49:04;;;;;;;10.27;4.57;;;0.00;99.90;;;;;;5080477;28;20032;-94
2024/01/08 03:51:30;;;;;;;9.60;4.90;;;0.00;99.90;;;;;;5078456;28;20036;-95
2024/01/08 03:53:59;;;;;;;9.77;4.40;;;0.10;99.90;;;;;;5078077;28;20028;-94
2024/01/08 03:56:24;;;;;;;11.85;4.55;;;0.10;99.90;;;;;;5078146;28;20107;-94
2024/01/08 03:58:50;;;;;;;7.97;3.88;;;0.20;99.90;;;;;;5076946;28;20052;-93
2024/01/08 04:01:16;;;;;;;8.95;4.22;;;0.10;99.90;;;;;;5077614;28;20051;-93
2024/01/08 04:03:42;;;;;;;7.80;4.45;;;0.00;99.90;;;;;;5080394;28;20027;-94
2024/01/08 04:06:10;;;;;;;11.48;3.80;;;0.00;99.90;;;;;;5078135;28;20020;-94
2024/01/08 04:08:36;;;;;;;6.45;3.47;;;0.00;99.90;;;;;;5084224;28;20024;-94
2024/01/08 04:11:03;;;;;;;9.57;4.82;;;0.10;99.90;;;;;;5078549;28;20090;-94
2024/01/08 04:13:30;;;;;;;9.77;4.30;;;0.10;99.90;;;;;;5073733;28;20055;-94
2024/01/08 04:15:56;;;;;;;8.35;3.83;;;0.10;99.90;;;;;;5079551;28;20763;-94
2024/01/08 04:18:21;;;;;;;14.38;4.25;;;0.10;99.90;;;;;;5078575;28;20028;-94
2024/01/08 04:20:47;;;;;;;7.15;3.92;;;0.00;99.90;;;;;;5080386;28;20024;-94
2024/01/08 04:23:12;;;;;;;8.02;3.80;;;0.20;99.90;;;;;;5079768;28;20047;-93
2024/01/08 04:25:38;;;;;;;10.18;4.88;;;0.10;99.90;;;;;;5073077;28;20013;-94
2024/01/08 04:28:04;;;;;;;8.75;4.10;;;0.10;99.90;;;;;;5079132;28;20036;-94
2024/01/08 04:30:30;;;;;;;6.32;3.63;;;0.10;99.90;;;;;;5070706;28;20036;-93
2024/01/08 04:32:56;;;;;;;10.20;4.53;;;0.00;99.90;;;;;;5079037;28;20046;-95
2024/01/08 04:35:24;;;;;;;10.60;3.88;;;0.00;99.90;;;;;;5062396;28;20071;-94
2024/01/08 04:37:49;;;;;;;8.35;3.63;;;0.00;99.90;;;;;;5082785;28;20114;-93
2024/01/08 04:40:15;;;;;;;7.78;3.72;;;0.20;99.90;;;;;;5078755;28;20064;-93
2024/01/08 04:42:41;;;;;;;7.38;3.90;;;0.00;99.90;;;;;;5076248;28;20031;-93
2024/01/08 04:45:08;;;;;;;6.45;3.70;;;0.00;99.90;;;;;;5070187;28;20021;-94
2024/01/08 04:47:33;;;;;;;8.98;3.85;;;-0.10;99.90;;;;;;5083631;28;20024;-94
2024/01/08 04:50:04;;;;;;;9.25;3.28;;;-0.20;99.90;;;;;;5091719;28;20040;-92
2024/01/08 04:52:33;;;;;;;9.38;3.75;;;-0.20;99.90;;;;;;5094954;28;20031;-92
2024/01/08 04:54:59;;;;;;;11.05;4.13;;;-0.20;99.90;;;;;;5092245;28;20028;-91
2024/01/08 04:57:24;;;;;;;10.82;3.33;;;-0.30;99.90;;;;;;5093054;28;20020;-93
2024/01/08 04:59:50;;;;;;;8.20;3.40;;;-0.30;99.90;;;;;;5081461;28;20082;-93
2024/01/08 05:02:16;;;;;;;8.70;2.97;;;-0.30;99.90;;;;;;5075658;28;20074;-93
2024/01/08 05:04:42;;;;;;;7.38;2.85;;;-0.30;99.90;;;;;;5081177;28;20039;-94
2024/01/08 05:07:08;;;;;;;6.35;3.03;;;-0.50;99.90;;;;;;5078794;28;20020;-94
2024/01/08 05:09:33;;;;;;;8.68;3.45;;;-0.50;99.90;;;;;;5085294;28;20081;-94
2024/01/08 05:11:59;;;;;;;6.70;3.17;;;-0.60;99.90;;;;;;5062440;28;20032;-92
2024/01/08 05:14:24;;;;;;;9.35;3.30;;;-0.60;99.90;;;;;;5082403;28;20540;-93
2024/01/08 05:16:50;;;;;;;8.68;2.97;;;-0.60;99.90;;;;;;5085029;28;20065;-93
2024/01/08 05:19:18;;;;;;;10.13;3.42;;;-0.50;99.90;;;;;;5081464;28;20028;-94
2024/01/08 05:21:44;;;;;;;6.75;3.15;;;-0.70;99.90;;;;;;5075156;28;20055;-94
2024/01/08 05:24:10;;;;;;;7.93;3.25;;;-0.70;99.90;;;;;;5075843;28;20023;-93
2024/01/08 05:26:36;;;;;;;9.70;3.13;;;-0.80;99.90;;;;;;5075617;28;20500;-94
2024/01/08 05:29:01;;;;;;;8.13;2.95;;;-0.80;99.90;;;;;;5077450;28;20157;-93
2024/01/08 05:31:27;;;;;;;7.90;3.05;;;-0.90;99.90;;;;;;5077894;28;20051;-94
2024/01/08 05:33:55;;;;;;;5.53;2.83;;;-0.90;99.90;;;;;;5078032;28;20032;-94
2024/01/08 05:36:20;;;;;;;;;;;-1.00;99.90;;;;;;5074658;28;20092;-93
2024/01/08 05:38:47;;;;;;;10.00;3.50;;;-1.10;99.90;;;;;;5077545;28;19974;-93
2024/01/08 05:41:12;;;;;;;7.32;3.25;;;-1.00;99.90;;;;;;5076216;28;20375;-94
2024/01/08 05:43:38;;;;;;;6.28;3.53;;;-1.10;99.90;;;;;;5074949;28;20060;-93
2024/01/08 05:46:05;;;;;;;11.57;3.95;;;-1.20;99.90;;;;;;5070034;28;20017;-93
2024/01/08 05:48:37;;;;;;;7.28;3.17;;;-1.30;99.90;;;;;;5078087;28;20041;-94
2024/01/08 05:51:09;;;;;;;6.85;2.80;;;-1.30;99.90;;;;;;5081455;28;20047;-94
2024/01/08 05:53:38;;;;;;;8.95;3.13;;;-1.30;99.90;;;;;;5053120;28;20028;-94
2024/01/08 05:56:03;;;;;;;6.20;3.40;;;-1.40;99.90;;;;;;5076899;28;20071;-93
2024/01/08 05:58:32;;;;;;;6.35;2.70;;;-1.40;99.90;;;;;;5079985;28;20494;-92
2024/01/08 06:00:58;;;;;;;12.13;3.25;;;-1.50;99.90;;;;;;5079582;28;20039;-93
2024/01/08 06:03:24;;;;;;;7.10;3.43;;;-1.50;99.90;;;;;;5071896;28;20278;-94
2024/01/08 06:05:50;;;;;;;9.77;3.42;;;-1.50;99.90;;;;;;5080118;28;20108;-92
2024/01/08 06:08:16;;;;;;;9.32;3.45;;;-1.60;99.90;;;;;;5079258;28;20036;-93
2024/01/08 06:10:42;;;;;;;7.75;3.40;;;-1.60;99.90;;;;;;5090544;28;20024;-92
2024/01/08 06:13:10;;;;;;;8.70;2.65;;;-1.70;99.90;;;;;;5094005;28;20047;-92
2024/01/08 06:15:39;;;;;;;7.43;3.25;;;-1.70;99.90;;;;;;5088003;28;20028;-93
2024/01/08 06:18:07;;;;;;;7.35;3.08;;;-1.70;99.90;;;;;;5078173;28;20028;-91
2024/01/08 06:20:33;;;;;;;6.53;2.67;;;-1.70;99.90;;;;;;5088401;28;20028;-93
2024/01/08 06:23:00;;;;;;;6.78;3.38;;;-1.80;99.90;;;;;;5088450;28;20036;-93
2024/01/08 06:25:25;;;;;;;12.77;3.72;;;-1.80;99.90;;;;;;5088038;28;20020;-93
2024/01/08 06:27:51;;;;;;;7.82;2.78;;;-1.80;99.90;;;;;;5080240;28;20118;-93
2024/01/08 06:30:17;;;;;;;6.70;2.78;;;-1.80;99.90;;;;;;5076060;28;20043;-93
2024/01/08 06:32:43;;;;;;;6.38;3.25;;;-1.80;99.90;;;;;;5073985;28;20028;-93
2024/01/08 06:35:09;;;;;;;7.78;2.85;;;-1.90;99.90;;;;;;5069192;28;20532;-93
2024/01/08 06:37:37;;;;;;;8.77;2.83;;;-1.90;99.90;;;;;;5075015;28;20043;-93
2024/01/08 06:40:03;;;;;;;;;;;-1.80;99.90;;;;;;5077830;28;20056;-93
2024/01/08 06:42:29;;;;;;;9.38;3.45;;;-2.00;99.90;;;;;;5074690;28;19958;-93
2024/01/08 06:44:54;;;;;;;8.85;3.10;;;-2.00;99.90;;;;;;5071998;28;20518;-92
2024/01/08 06:47:20;;;;;;;6.15;2.90;;;-2.00;99.70;;;;;;5065719;28;20059;-93
2024/01/08 06:49:46;;;;;;;7.18;3.15;;;-2.10;99.90;;;;;;5060843;28;20040;-91
2024/01/08 06:52:13;;;;;;;6.97;3.03;;;-2.10;99.80;;;;;;5068986;28;20025;-93
2024/01/08 06:54:42;;;;;;;7.63;2.72;;;-2.10;99.90;;;;;;5069226;28;20036;-93
2024/01/08 06:57:08;;;;;;;7.68;2.70;;;-2.10;99.70;;;;;;5070014;28;20048;-94
2024/01/08 06:59:33;;;;;;;10.30;3.30;;;-2.00;99.30;;;;;;5056153;28;20040;-91
2024/01/08 07:01:59;;;;;;;8.23;2.58;;;-2.20;99.40;;;;;;5070970;28;20499;-93
2024/01/08 07:04:25;;;;;;;9.52;3.92;;;-2.20;99.20;;;;;;5071522;28;20028;-93
2024/01/08 07:06:50;;;;;;;9.35;2.92;;;-2.20;99.40;;;;;;5071970;28;20074;-89
2024/01/08 07:09:16;;;;;;;7.40;3.22;;;-2.30;99.70;;;;;;5073273;28;20462;-94
2024/01/08 07:11:41;;;;;;;8.10;2.50;;;-2.20;99.90;;;;;;5081576;28;20040;-94
2024/01/08 07:14:07;;;;;;;10.20;3.80;;;-2.30;99.70;;;;;;5090060;28;20024;-95
2024/01/08 07:16:33;;;;;;;6.75;2.72;;;-2.30;99.30;;;;;;5090342;28;20040;-96
2024/01/08 07:18:59;;;;;;;8.10;3.20;;;-2.40;99.60;;;;;;5087644;28;20012;-96
2024/01/08 07:21:25;;;;;;;5.13;2.40;;;-2.40;99.70;;;;;;5084108;28;20047;-94
2024/01/08 07:23:51;;;;;;;8.52;3.38;;;-2.40;99.90;;;;;;5077372;28;20016;-94
2024/01/08 07:26:17;;;;;;;8.00;2.90;;;-2.50;99.70;;;;;;5071948;28;20045;-92
2024/01/08 07:28:43;;;;;;;6.88;3.25;;;-2.50;99.80;;;;;;5072916;28;20032;-95
2024/01/08 07:31:11;;;;;;;6.80;3.10;;;-2.40;99.60;;;;;;5073945;28;20024;-95
2024/01/08 07:33:37;;;;;;;11.02;3.25;;;-2.40;99.30;;;;;;5068645;28;20581;-95
2024/01/08 07:36:04;;;;;;;10.68;3.13;;;-2.50;99.10;;;;;;5069853;28;20109;-95
2024/01/08 07:38:30;;;;;;;9.15;2.85;;;-2.50;99.40;;;;;;5071264;28;20032;-94
2024/01/08 07:40:55;;;;;;;7.60;3.22;;;-2.50;99.40;;;;;;5072597;28;20044;-95
2024/01/08 07:43:21;;;;;;;5.75;2.50;;;-2.60;99.30;;;;;;5071921;28;20032;-95
2024/01/08 07:45:47;;;;;;;6.93;3.30;;;-2.60;99.60;;;;;;5077358;28;20031;-94
2024/01/08 07:48:12;;;;;;;5.90;2.80;;;-2.60;99.30;;;;;;5082410;28;20478;-94
2024/01/08 07:50:39;;;;;;;10.88;3.40;;;-2.40;99.20;;;;;;5066840;28;20024;-94
2024/01/08 07:53:04;;;;;;;9.05;3.42;;;-2.60;99.40;;;;;;5074063;28;20024;-94
2024/01/08 07:55:30;;;;;;;10.32;3.70;;;-2.60;99.30;;;;;;5071324;28;20115;-95
2024/01/08 07:57:56;;;;;;;8.10;3.08;;;-2.60;99.30;;;;;;5080072;28;20062;-94
2024/01/08 08:00:24;;;;;;;7.68;2.85;;;-2.60;99.10;;;;;;5072315;28;20040;-94
2024/01/08 08:02:54;;;;;;;6.25;2.75;;;-2.60;98.90;;;;;;5076238;28;20074;-94
2024/01/08 08:05:20;;;;;;;7.10;3.15;;;-2.60;98.40;;;;;;5077651;28;20094;-95
2024/01/08 08:07:45;;;;;;;8.63;3.00;;;-2.70;98.30;;;;;;5081381;28;20024;-95
2024/01/08 08:10:13;;;;;;;5.60;2.75;;;-2.70;98.20;;;;;;5074105;28;20081;-94
2024/01/08 08:12:39;;;;;;;8.20;2.70;;;-2.70;98.20;;;;;;5077605;28;20054;-95
2024/01/08 08:15:05;;;;;;;5.60;2.67;;;-2.70;98.10;;;;;;5074836;28;20074;-94
2024/01/08 08:17:31;;;;;;;11.13;3.22;;;-2.80;97.80;;;;;;5079868;28;20061;-94
2024/01/08 08:19:56;;;;;;;8.52;3.08;;;-2.80;97.90;;;;;;5075045;28;20150;-94
2024/01/08 08:22:23;;;;;;;8.45;2.90;;;-2.80;98.20;;;;;;5078110;28;20050;-94
2024/01/08 08:24:49;;;;;;;8.55;3.15;;;-2.80;98.60;;;;;;5071695;28;20509;-94
2024/01/08 08:27:14;;;;;;;9.70;2.97;;;-2.70;98.80;;;;;;5077128;28;20020;-95
2024/01/08 08:29:42;;;;;;;8.05;3.10;;;-2.80;98.30;;;;;;5081464;28;20008;-94
2024/01/08 08:32:08;;;;;;;6.28;2.92;;;-2.60;98.30;;;;;;5077473;28;20028;-95
2024/01/08 08:34:35;;;;;;;8.82;3.50;;;-2.80;98.30;;;;;;5072613;28;20029;-95
2024/01/08 08:37:02;;;;;;;5.38;3.10;;;-2.70;98.20;;;;;;5064782;28;20040;-95
2024/01/08 08:39:28;;;;;;;11.98;3.15;;;-2.90;98.00;;;;;;5078644;28;20025;-94
2024/01/08 08:41:57;;;;;;;5.60;2.58;;;-2.70;98.20;;;;;;5077340;28;20040;-94
2024/01/08 08:44:59;;;;;;;11.57;3.25;;;-2.70;98.30;;;;;;5078862;28;20489;-95
2024/01/08 08:47:33;;;;;;;6.28;3.25;;;-2.60;98.60;;;;;;5099355;22;20076;-71
2024/01/08 08:50:02;;;;;;;8.20;3.42;;;-2.60;98.20;;;;;;5064127;28;20075;-72
2024/01/08 08:52:28;;;;;;;5.82;2.83;;;-2.60;98.40;;;;;;5058734;28;20040;-72
2024/01/08 08:54:56;;;;;;;9.98;3.92;;;-2.60;98.50;;;;;;5060776;28;20037;-71
2024/01/08 08:57:21;;;;;;;;;;;-2.60;98.10;;;;;;5057472;28;20028;-71
2024/01/08 08:59:49;;;;;;;5.38;2.47;;;-2.60;97.90;;;;;;5043643;28;19922;-71
2024/01/08 09:02:18;;;;;;;;;;;-2.50;98.10;;;;;;5062888;28;20110;-72
2024/01/08 09:04:43;;;;;;;6.28;2.80;;;-2.50;98.00;;;;;;5057430;28;19917;-71
2024/01/08 09:07:09;;;;;;;5.60;2.88;;;-2.50;97.80;;;;;;5059198;28;20055;-71
2024/01/08 09:09:35;;;;;;;9.07;3.53;;;-2.50;97.80;;;;;;5063089;28;20463;-71
2024/01/08 09:12:04;;;;;;;6.85;3.42;;;-2.50;97.70;;;;;;5042898;28;20037;-72
2024/01/08 09:14:31;;;;;;;5.80;3.08;;;-2.40;98.10;;;;;;5058454;28;20090;-72
2024/01/08 09:16:57;;;;;;;11.70;3.72;;;-2.40;97.80;;;;;;5061947;28;20029;-72
2024/01/08 09:19:23;;;;;;;6.63;2.97;;;-2.40;97.40;;;;;;5059138;28;20051;-72
2024/01/08 09:21:51;;;;;;;6.63;3.08;;;-2.40;97.60;;;;;;5060017;28;20040;-72
2024/01/08 09:24:16;;;;;;;;;;;-2.30;97.80;;;;;;5060108;28;20025;-72
2024/01/08 09:26:43;;;;;;;12.77;3.35;;;-2.30;97.40;;;;;;5059526;28;19934;-71
2024/01/08 09:29:09;;;;;;;8.48;2.95;;;-2.30;97.20;;;;;;5061487;28;20095;-72
2024/01/08 09:31:34;;;;;;;7.53;3.08;;;-2.30;97.20;;;;;;5064089;28;20155;-72
2024/01/08 09:34:00;;;;;;;7.72;3.35;;;-2.20;97.10;;;;;;5065083;28;20036;-72
2024/01/08 09:36:25;;;;;;;8.20;2.97;;;-2.30;96.20;;;;;;5046496;28;20550;-72
2024/01/08 09:38:51;;;;;;;5.32;2.50;;;-2.30;96.00;;;;;;5070203;28;20117;-72
2024/01/08 09:41:19;;;;;;;6.95;3.10;;;-2.30;96.40;;;;;;5062841;28;20040;-72
2024/01/08 09:43:47;;;;;;;10.00;3.33;;;-2.20;96.30;;;;;;5067751;28;20082;-72
2024/01/08 09:46:18;;;;;;;6.55;2.88;;;-2.20;96.40;;;;;;5062620;28;20031;-72
2024/01/08 09:48:45;;;;;;;4.90;2.80;;;-2.20;96.20;;;;;;5061005;28;20028;-72
2024/01/08 09:51:11;;;;;;;5.85;2.78;;;-2.20;95.90;;;;;;5063150;28;20025;-72
2024/01/08 09:53:36;;;;;;;5.43;2.45;;;-2.20;95.50;;;;;;5067438;28;20063;-72
2024/01/08 09:56:05;;;;;;;7.35;3.28;;;-2.10;96.10;;;;;;5062140;28;20060;-72
2024/01/08 09:58:30;;;;;;;9.63;3.55;;;-2.00;96.10;;;;;;5061800;28;20024;-72
2024/01/08 10:00:56;;;;;;;10.82;4.45;;;-2.00;96.30;;;;;;5047215;28;20495;-72
2024/01/08 10:03:26;;;;;;;7.78;3.42;;;-2.00;95.90;;;;;;5064722;28;20036;-72
2024/01/08 10:05:51;;;;;;;7.38;2.88;;;-2.00;95.60;;;;;;5062100;28;20033;-72
2024/01/08 10:08:17;;;;;;;13.07;3.25;;;-2.00;95.80;;;;;;5063042;28;20035;-72
2024/01/08 10:10:43;;;;;;;6.65;2.95;;;-2.00;96.00;;;;;;5063305;28;20066;-72
2024/01/08 10:13:12;;;;;;;9.32;3.55;;;-1.90;96.10;;;;;;5065854;28;20028;-72
2024/01/08 10:15:37;;;;;;;6.18;3.15;;;-1.90;95.90;;;;;;5067376;28;21905;-71
2024/01/08 10:18:09;;;;;;;5.75;2.88;;;-1.80;96.10;;;;;;5065519;28;20058;-72
2024/01/08 10:20:35;;;;;;;8.05;2.63;;;-1.70;96.00;;;;;;5061438;28;20072;-72
2024/01/08 10:23:09;;;;;;;7.72;3.58;;;-1.70;95.70;;;;;;5056862;28;20104;-72
2024/01/08 10:25:36;;;;;;;6.60;2.80;;;-1.50;95.60;;;;;;5064829;28;20067;-72
2024/01/08 10:28:02;;;;;;;6.30;3.22;;;-1.30;95.50;;;;;;5068150;28;20379;-72
2024/01/08 10:30:28;;;;;;;5.43;2.70;;;-1.20;95.30;;;;;;5063188;28;20083;-72
2024/01/08 10:32:59;;;;;;;8.20;3.60;;;-1.20;95.10;;;;;;5060647;28;20033;-72
2024/01/08 10:35:27;;;;;;;6.13;2.75;;;-1.10;94.90;;;;;;5060462;28;20079;-72
2024/01/08 10:37:54;;;;;;;6.88;3.15;;;-1.10;95.20;;;;;;5066310;28;20025;-72
2024/01/08 10:40:20;;;;;;;6.53;2.85;;;-1.10;95.10;;;;;;5050037;28;20060;-72
2024/01/08 10:42:46;;;;;;;7.40;2.92;;;-1.10;95.00;;;;;;5055729;28;20075;-72
2024/01/08 10:45:11;;;;;;;6.25;2.90;;;-1.00;95.20;;;;;;5048099;28;20576;-72
2024/01/08 10:47:43;;;;;;;8.25;2.70;;;-0.70;95.30;;;;;;5056557;28;20032;-72
2024/01/08 10:50:11;;;;;;;7.00;3.25;;;-0.60;95.50;;;;;;5065408;28;20032;-72
2024/01/08 10:52:44;;;;;;;9.02;3.22;;;-0.30;95.50;;;;;;5061907;28;20043;-72
2024/01/08 10:55:13;;;;;;;8.75;3.38;;;-0.20;95.40;;;;;;5050074;28;20441;-72
2024/01/08 10:57:50;;;;;;;10.57;3.28;;;0.10;96.10;;;;;;5064398;28;20016;-72
2024/01/08 11:00:16;;;;;;;5.97;3.10;;;0.40;96.40;;;;;;5059827;28;20028;-72
2024/01/08 11:02:44;;;;;;;6.80;3.03;;;0.70;96.70;;;;;;5058494;28;20021;-72
2024/01/08 11:05:10;;;;;;;8.02;3.90;;;0.80;95.20;;;;;;5059502;28;20025;-72
2024/01/08 11:07:38;;;;;;;6.60;3.05;;;1.10;95.60;;;;;;5064662;28;20017;-72
2024/01/08 11:10:04;;;;;;;6.90;3.45;;;1.40;96.70;;;;;;5045171;28;20051;-73
2024/01/08 11:12:42;;;;;;;5.50;3.17;;;1.70;95.50;;;;;;5060045;28;20475;-73
2024/01/08 11:15:15;;;;;;;9.45;3.50;;;1.80;94.80;;;;;;5063185;28;20111;-72
2024/01/08 11:17:53;;;;;;;6.80;3.15;;;1.80;93.90;;;;;;5066970;28;20100;-72
2024/01/08 11:20:45;;;;;;;6.45;3.17;;;2.00;94.20;;;;;;5066387;28;20166;-72
2024/01/08 11:23:33;;;;;;;6.28;3.38;;;2.40;95.00;;;;;;5054844;28;20071;-72
2024/01/08 11:26:03;;;;;;;7.15;3.70;;;2.70;95.20;;;;;;5059003;28;20024;-72
2024/01/08 11:28:32;;;;;;;7.95;2.97;;;3.00;94.20;;;;;;5061371;28;20041;-72
2024/01/08 11:31:21;;;;;;;10.98;3.70;;;3.60;96.00;;;;;;5062057;28;20152;-72
2024/01/08 11:33:58;;;;;;;13.93;4.35;;;3.90;93.50;;;;;;5011226;28;20092;-73
2024/01/08 11:36:48;;;;;;;7.15;4.03;;;4.20;94.50;;;;;;5057139;28;20040;-72
2024/01/08 11:39:18;;;;;;;5.72;3.35;;;4.40;92.90;;;;;;5048412;28;20352;-72
2024/01/08 11:41:47;;;;;;;7.03;3.20;;;4.80;92.60;;;;;;5063120;28;20115;-72
2024/01/08 11:44:16;;;;;;;5.93;2.85;;;5.00;91.70;;;;;;5061775;28;20039;-72
2024/01/08 11:46:43;;;;;;;11.98;3.90;;;5.30;91.50;;;;;;5063044;28;20051;-72
2024/01/08 11:49:09;;;;;;;8.67;3.70;;;5.30;91.10;;;;;;5065666;28;20468;-73
2024/01/08 11:51:36;;;;;;;6.82;3.33;;;5.20;90.90;;;;;;5065394;28;20035;-73
2024/01/08 11:54:07;;;;;;;9.00;3.28;;;5.10;90.10;;;;;;5059170;28;20033;-73
2024/01/08 11:56:34;;;;;;;6.15;3.25;;;4.80;90.20;;;;;;5058666;28;20040;-73
2024/01/08 11:59:04;;;;;;;6.63;3.28;;;4.80;91.10;;;;;;5050589;28;20036;-73
2024/01/08 12:01:30;;;;;;;8.45;3.33;;;4.80;90.90;;;;;;5061014;28;20059;-73
2024/01/08 12:03:59;;;;;;;6.65;2.63;;;4.70;90.40;;;;;;5058400;28;20094;-73
2024/01/08 12:06:28;;;;;;;6.35;3.00;;;4.30;90.20;;;;;;5058987;28;20075;-73
2024/01/08 12:08:55;;;;;;;6.80;2.85;;;4.30;90.20;;;;;;5055134;28;20032;-72
2024/01/08 12:11:25;;;;;;;7.28;3.67;;;3.90;89.60;;;;;;5059512;28;20099;-73
2024/01/08 12:13:56;;;;;;;6.75;3.13;;;3.60;90.80;;;;;;5067519;28;20025;-73
2024/01/08 12:16:21;;;;;;;6.32;2.80;;;3.50;90.90;;;;;;5048176;28;20020;-73
2024/01/08 12:18:47;;;;;;;7.65;2.88;;;3.50;90.80;;;;;;5070115;28;20557;-73
2024/01/08 12:21:13;;;;;;;8.57;3.63;;;3.20;90.80;;;;;;5044370;28;20047;-73
2024/01/08 12:23:39;;;;;;;9.02;2.88;;;3.10;90.30;;;;;;5062678;28;20076;-72
2024/01/08 12:26:07;;;;;;;7.30;3.30;;;2.90;90.80;;;;;;5061239;28;20746;-73
2024/01/08 12:28:33;;;;;;;6.80;3.10;;;2.60;90.50;;;;;;5042772;28;20123;-72
2024/01/08 12:30:59;;;;;;;7.05;2.63;;;2.50;90.50;;;;;;5053188;28;20064;-72
2024/01/08 12:33:29;;;;;;;5.15;2.80;;;2.30;91.00;;;;;;5063415;28;20067;-72
2024/01/08 12:35:55;;;;;;;4.78;2.50;;;2.20;91.20;;;;;;5060943;28;20127;-72
2024/01/08 12:38:26;;;;;;;7.32;2.80;;;2.10;90.90;;;;;;5061436;28;20416;-72
2024/01/08 12:40:52;;;;;;;5.85;2.92;;;1.90;90.90;;;;;;5065743;28;20021;-72
2024/01/08 12:43:20;;;;;;;5.78;2.83;;;1.90;91.20;;;;;;5061763;28;20099;-72
2024/01/08 12:45:47;;;;;;;5.43;2.53;;;1.80;91.40;;;;;;5056478;23;20094;-72
2024/01/08 12:48:13;;;;;;;4.68;2.40;;;1.70;90.90;;;;;;5074323;28;20060;-71
2024/01/08 12:50:39;;;;;;;7.10;2.10;;;1.70;91.20;;;;;;5084652;28;20487;-72